sensor_id;sensor_type;location;lat;lon;timestamp;P1;durP1;ratioP1;P2;durP2;ratioP2
15293;SDS011;7748;52.474;13.454;2023-02-15T00:02:06;41.00;;;20.53;;
15293;SDS011;7748;52.474;13.454;2023-02-15T00:04:34;41.23;;;18.87;;
15293;SDS011;7748;52.474;13.454;2023-02-15T00:07:14;46.43;;;24.27;;
15293;SDS011;7748;52.474;13.454;2023-02-15T00:09:46;37.50;;;19.97;;
15293;SDS011;7748;52.474;13.454;2023-02-15T00:12:14;36.17;;;18.10;;
15293;SDS011;7748;52.474;13.454;2023-02-15T00:14:42;38.03;;;21.60;;
15293;SDS011;7748;52.474;13.454;2023-02-15T00:17:10;36.20;;;19.40;;
15293;SDS011;7748;52.474;13.454;2023-02-15T00:19:38;34.17;;;18.90;;
15293;SDS011;7748;52.474;13.454;2023-02-15T00:22:07;35.70;;;20.03;;
15293;SDS011;7748;52.474;13.454;2023-02-15T00:24:35;36.40;;;20.57;;
15293;SDS011;7748;52.474;13.454;2023-02-15T00:27:04;42.67;;;21.07;;
15293;SDS011;7748;52.474;13.454;2023-02-15T00:29:32;40.20;;;20.30;;
15293;SDS011;7748;52.474;13.454;2023-02-15T00:32:00;34.47;;;18.57;;
15293;SDS011;7748;52.474;13.454;2023-02-15T00:34:28;38.80;;;21.13;;
15293;SDS011;7748;52.474;13.454;2023-02-15T00:36:56;39.67;;;20.43;;
15293;SDS011;7748;52.474;13.454;2023-02-15T00:39:24;41.53;;;21.60;;
15293;SDS011;7748;52.474;13.454;2023-02-15T00:41:53;34.23;;;19.50;;
15293;SDS011;7748;52.474;13.454;2023-02-15T00:44:22;43.63;;;21.50;;
15293;SDS011;7748;52.474;13.454;2023-02-15T00:46:50;40.73;;;20.80;;
15293;SDS011;7748;52.474;13.454;2023-02-15T00:49:18;39.00;;;20.77;;
15293;SDS011;7748;52.474;13.454;2023-02-15T00:51:46;37.50;;;20.13;;
15293;SDS011;7748;52.474;13.454;2023-02-15T00:54:14;35.83;;;20.20;;
15293;SDS011;7748;52.474;13.454;2023-02-15T00:56:41;40.07;;;20.37;;
15293;SDS011;7748;52.474;13.454;2023-02-15T00:59:09;38.40;;;19.20;;
15293;SDS011;7748;52.474;13.454;2023-02-15T01:01:39;36.97;;;21.50;;
15293;SDS011;7748;52.474;13.454;2023-02-15T01:04:06;36.83;;;19.80;;
15293;SDS011;7748;52.474;13.454;2023-02-15T01:06:34;36.77;;;21.40;;
15293;SDS011;7748;52.474;13.454;2023-02-15T01:09:02;43.63;;;22.07;;
15293;SDS011;7748;52.474;13.454;2023-02-15T01:11:30;40.63;;;21.47;;
15293;SDS011;7748;52.474;13.454;2023-02-15T01:13:58;39.67;;;22.87;;
15293;SDS011;7748;52.474;13.454;2023-02-15T01:16:27;40.67;;;21.13;;
15293;SDS011;7748;52.474;13.454;2023-02-15T01:18:57;40.97;;;21.93;;
15293;SDS011;7748;52.474;13.454;2023-02-15T01:21:25;38.90;;;21.87;;
15293;SDS011;7748;52.474;13.454;2023-02-15T01:23:53;42.80;;;22.60;;
15293;SDS011;7748;52.474;13.454;2023-02-15T01:26:21;46.60;;;21.83;;
15293;SDS011;7748;52.474;13.454;2023-02-15T01:28:49;42.67;;;22.30;;
15293;SDS011;7748;52.474;13.454;2023-02-15T01:31:17;43.93;;;22.97;;
15293;SDS011;7748;52.474;13.454;2023-02-15T01:33:48;44.67;;;22.70;;
15293;SDS011;7748;52.474;13.454;2023-02-15T01:36:17;44.20;;;22.17;;
15293;SDS011;7748;52.474;13.454;2023-02-15T01:38:45;47.97;;;22.43;;
15293;SDS011;7748;52.474;13.454;2023-02-15T01:41:13;43.57;;;22.90;;
15293;SDS011;7748;52.474;13.454;2023-02-15T01:43:50;44.67;;;23.07;;
15293;SDS011;7748;52.474;13.454;2023-02-15T01:46:20;46.97;;;23.53;;
15293;SDS011;7748;52.474;13.454;2023-02-15T01:48:52;45.40;;;22.97;;
15293;SDS011;7748;52.474;13.454;2023-02-15T01:51:25;44.03;;;22.63;;
15293;SDS011;7748;52.474;13.454;2023-02-15T01:53:57;49.90;;;24.77;;
15293;SDS011;7748;52.474;13.454;2023-02-15T01:56:29;54.00;;;23.07;;
15293;SDS011;7748;52.474;13.454;2023-02-15T01:59:00;47.87;;;24.37;;
15293;SDS011;7748;52.474;13.454;2023-02-15T02:01:32;40.43;;;21.93;;
15293;SDS011;7748;52.474;13.454;2023-02-15T02:04:02;46.13;;;22.47;;
15293;SDS011;7748;52.474;13.454;2023-02-15T02:06:38;50.23;;;23.23;;
15293;SDS011;7748;52.474;13.454;2023-02-15T02:09:07;43.60;;;23.90;;
15293;SDS011;7748;52.474;13.454;2023-02-15T02:11:35;46.37;;;23.50;;
15293;SDS011;7748;52.474;13.454;2023-02-15T02:14:03;49.77;;;23.87;;
15293;SDS011;7748;52.474;13.454;2023-02-15T02:16:33;52.00;;;24.83;;
15293;SDS011;7748;52.474;13.454;2023-02-15T02:19:11;45.87;;;24.03;;
15293;SDS011;7748;52.474;13.454;2023-02-15T02:22:17;49.80;;;24.57;;
15293;SDS011;7748;52.474;13.454;2023-02-15T02:25:23;60.80;;;26.30;;
15293;SDS011;7748;52.474;13.454;2023-02-15T02:28:14;50.67;;;25.83;;
15293;SDS011;7748;52.474;13.454;2023-02-15T02:31:02;53.83;;;26.17;;
15293;SDS011;7748;52.474;13.454;2023-02-15T02:33:53;54.17;;;26.03;;
15293;SDS011;7748;52.474;13.454;2023-02-15T02:36:29;53.20;;;27.30;;
15293;SDS011;7748;52.474;13.454;2023-02-15T02:39:07;55.33;;;26.43;;
15293;SDS011;7748;52.474;13.454;2023-02-15T02:41:50;57.10;;;27.43;;
15293;SDS011;7748;52.474;13.454;2023-02-15T02:44:26;52.13;;;26.23;;
15293;SDS011;7748;52.474;13.454;2023-02-15T02:47:02;49.87;;;23.90;;
15293;SDS011;7748;52.474;13.454;2023-02-15T02:49:39;53.97;;;25.07;;
15293;SDS011;7748;52.474;13.454;2023-02-15T02:55:03;57.47;;;26.77;;
15293;SDS011;7748;52.474;13.454;2023-02-15T02:57:35;65.63;;;26.00;;
15293;SDS011;7748;52.474;13.454;2023-02-15T03:00:09;61.70;;;27.13;;
15293;SDS011;7748;52.474;13.454;2023-02-15T03:02:40;58.80;;;26.37;;
15293;SDS011;7748;52.474;13.454;2023-02-15T03:05:14;59.73;;;26.97;;
15293;SDS011;7748;52.474;13.454;2023-02-15T03:07:45;55.97;;;25.73;;
15293;SDS011;7748;52.474;13.454;2023-02-15T03:10:18;61.10;;;26.87;;
15293;SDS011;7748;52.474;13.454;2023-02-15T03:12:48;58.10;;;27.67;;
15293;SDS011;7748;52.474;13.454;2023-02-15T03:15:18;53.23;;;25.20;;
15293;SDS011;7748;52.474;13.454;2023-02-15T03:17:48;62.73;;;27.83;;
15293;SDS011;7748;52.474;13.454;2023-02-15T03:20:22;60.83;;;26.87;;
15293;SDS011;7748;52.474;13.454;2023-02-15T03:22:53;65.33;;;25.40;;
15293;SDS011;7748;52.474;13.454;2023-02-15T03:25:25;53.37;;;25.00;;
15293;SDS011;7748;52.474;13.454;2023-02-15T03:27:55;61.53;;;27.17;;
15293;SDS011;7748;52.474;13.454;2023-02-15T03:30:28;53.33;;;25.30;;
15293;SDS011;7748;52.474;13.454;2023-02-15T03:32:57;63.67;;;27.23;;
15293;SDS011;7748;52.474;13.454;2023-02-15T03:35:31;62.33;;;25.97;;
15293;SDS011;7748;52.474;13.454;2023-02-15T03:38:04;63.80;;;26.83;;
15293;SDS011;7748;52.474;13.454;2023-02-15T03:40:36;57.97;;;26.00;;
15293;SDS011;7748;52.474;13.454;2023-02-15T03:43:23;59.67;;;26.23;;
15293;SDS011;7748;52.474;13.454;2023-02-15T03:45:59;64.67;;;27.33;;
15293;SDS011;7748;52.474;13.454;2023-02-15T03:48:35;52.90;;;24.02;;
15293;SDS011;7748;52.474;13.454;2023-02-15T03:51:08;55.27;;;25.50;;
15293;SDS011;7748;52.474;13.454;2023-02-15T03:53:57;59.90;;;24.95;;
15293;SDS011;7748;52.474;13.454;2023-02-15T03:56:27;57.08;;;26.60;;
15293;SDS011;7748;52.474;13.454;2023-02-15T03:58:55;66.50;;;26.90;;
15293;SDS011;7748;52.474;13.454;2023-02-15T04:01:42;62.97;;;27.10;;
15293;SDS011;7748;52.474;13.454;2023-02-15T04:04:32;58.15;;;25.88;;
15293;SDS011;7748;52.474;13.454;2023-02-15T04:07:03;58.45;;;26.55;;
15293;SDS011;7748;52.474;13.454;2023-02-15T04:09:32;57.90;;;25.57;;
15293;SDS011;7748;52.474;13.454;2023-02-15T04:12:17;60.17;;;25.80;;
15293;SDS011;7748;52.474;13.454;2023-02-15T04:14:46;60.55;;;26.13;;
15293;SDS011;7748;52.474;13.454;2023-02-15T04:17:31;60.38;;;24.83;;
15293;SDS011;7748;52.474;13.454;2023-02-15T04:19:59;54.57;;;25.07;;
15293;SDS011;7748;52.474;13.454;2023-02-15T04:22:45;61.72;;;26.42;;
15293;SDS011;7748;52.474;13.454;2023-02-15T04:25:31;57.75;;;24.98;;
15293;SDS011;7748;52.474;13.454;2023-02-15T04:27:59;59.28;;;25.48;;
15293;SDS011;7748;52.474;13.454;2023-02-15T04:30:26;62.50;;;27.43;;
15293;SDS011;7748;52.474;13.454;2023-02-15T04:32:54;54.50;;;25.20;;
15293;SDS011;7748;52.474;13.454;2023-02-15T04:35:24;63.65;;;27.20;;
15293;SDS011;7748;52.474;13.454;2023-02-15T04:37:54;63.50;;;26.17;;
15293;SDS011;7748;52.474;13.454;2023-02-15T04:40:23;58.67;;;26.83;;
15293;SDS011;7748;52.474;13.454;2023-02-15T04:42:50;57.50;;;25.97;;
15293;SDS011;7748;52.474;13.454;2023-02-15T04:45:18;64.95;;;28.77;;
15293;SDS011;7748;52.474;13.454;2023-02-15T04:47:46;58.22;;;26.08;;
15293;SDS011;7748;52.474;13.454;2023-02-15T04:50:14;60.30;;;27.65;;
15293;SDS011;7748;52.474;13.454;2023-02-15T04:52:42;63.13;;;28.20;;
15293;SDS011;7748;52.474;13.454;2023-02-15T04:55:11;62.72;;;26.65;;
15293;SDS011;7748;52.474;13.454;2023-02-15T04:57:40;60.97;;;26.17;;
15293;SDS011;7748;52.474;13.454;2023-02-15T05:00:08;56.90;;;27.40;;
15293;SDS011;7748;52.474;13.454;2023-02-15T05:02:37;60.80;;;26.73;;
15293;SDS011;7748;52.474;13.454;2023-02-15T05:05:05;62.17;;;26.45;;
15293;SDS011;7748;52.474;13.454;2023-02-15T05:07:35;58.70;;;25.30;;
15293;SDS011;7748;52.474;13.454;2023-02-15T05:10:03;58.00;;;26.55;;
15293;SDS011;7748;52.474;13.454;2023-02-15T05:12:33;56.05;;;24.88;;
15293;SDS011;7748;52.474;13.454;2023-02-15T05:15:01;56.50;;;25.75;;
15293;SDS011;7748;52.474;13.454;2023-02-15T05:17:29;69.05;;;26.67;;
15293;SDS011;7748;52.474;13.454;2023-02-15T05:19:57;59.40;;;27.55;;
15293;SDS011;7748;52.474;13.454;2023-02-15T05:22:25;59.65;;;26.48;;
15293;SDS011;7748;52.474;13.454;2023-02-15T05:24:52;61.38;;;26.52;;
15293;SDS011;7748;52.474;13.454;2023-02-15T05:27:39;57.17;;;26.98;;
15293;SDS011;7748;52.474;13.454;2023-02-15T05:30:21;61.88;;;26.50;;
15293;SDS011;7748;52.474;13.454;2023-02-15T05:32:49;61.30;;;27.25;;
15293;SDS011;7748;52.474;13.454;2023-02-15T05:35:17;69.38;;;30.27;;
15293;SDS011;7748;52.474;13.454;2023-02-15T05:37:45;63.88;;;27.65;;
15293;SDS011;7748;52.474;13.454;2023-02-15T05:40:13;64.80;;;27.70;;
15293;SDS011;7748;52.474;13.454;2023-02-15T05:42:42;66.82;;;27.73;;
15293;SDS011;7748;52.474;13.454;2023-02-15T05:45:10;69.00;;;27.20;;
15293;SDS011;7748;52.474;13.454;2023-02-15T05:47:38;70.95;;;29.05;;
15293;SDS011;7748;52.474;13.454;2023-02-15T05:50:06;62.38;;;26.75;;
15293;SDS011;7748;52.474;13.454;2023-02-15T05:52:35;65.47;;;29.13;;
15293;SDS011;7748;52.474;13.454;2023-02-15T05:55:03;64.10;;;28.20;;
15293;SDS011;7748;52.474;13.454;2023-02-15T05:57:32;72.10;;;27.90;;
15293;SDS011;7748;52.474;13.454;2023-02-15T06:00:01;67.27;;;28.60;;
15293;SDS011;7748;52.474;13.454;2023-02-15T06:02:32;64.30;;;26.90;;
15293;SDS011;7748;52.474;13.454;2023-02-15T06:05:00;70.50;;;27.77;;
15293;SDS011;7748;52.474;13.454;2023-02-15T06:07:28;65.40;;;26.97;;
15293;SDS011;7748;52.474;13.454;2023-02-15T06:09:56;62.00;;;27.37;;
15293;SDS011;7748;52.474;13.454;2023-02-15T06:12:24;64.83;;;27.27;;
15293;SDS011;7748;52.474;13.454;2023-02-15T06:14:52;62.07;;;27.37;;
15293;SDS011;7748;52.474;13.454;2023-02-15T06:17:22;71.18;;;28.05;;
15293;SDS011;7748;52.474;13.454;2023-02-15T06:19:50;76.65;;;29.88;;
15293;SDS011;7748;52.474;13.454;2023-02-15T06:22:18;61.42;;;25.80;;
15293;SDS011;7748;52.474;13.454;2023-02-15T06:24:46;79.67;;;27.77;;
15293;SDS011;7748;52.474;13.454;2023-02-15T06:27:14;68.85;;;26.05;;
15293;SDS011;7748;52.474;13.454;2023-02-15T06:29:42;82.05;;;28.02;;
15293;SDS011;7748;52.474;13.454;2023-02-15T06:32:09;72.67;;;27.90;;
15293;SDS011;7748;52.474;13.454;2023-02-15T06:34:39;69.15;;;25.17;;
15293;SDS011;7748;52.474;13.454;2023-02-15T06:37:07;75.33;;;25.20;;
15293;SDS011;7748;52.474;13.454;2023-02-15T06:39:35;77.53;;;31.30;;
15293;SDS011;7748;52.474;13.454;2023-02-15T06:42:03;79.40;;;26.60;;
15293;SDS011;7748;52.474;13.454;2023-02-15T06:44:31;79.68;;;29.58;;
15293;SDS011;7748;52.474;13.454;2023-02-15T06:46:59;106.93;;;27.67;;
15293;SDS011;7748;52.474;13.454;2023-02-15T06:49:27;67.60;;;26.40;;
15293;SDS011;7748;52.474;13.454;2023-02-15T06:51:56;76.47;;;29.17;;
15293;SDS011;7748;52.474;13.454;2023-02-15T06:54:24;76.35;;;28.02;;
15293;SDS011;7748;52.474;13.454;2023-02-15T06:56:52;90.07;;;28.38;;
15293;SDS011;7748;52.474;13.454;2023-02-15T06:59:20;68.82;;;26.63;;
15293;SDS011;7748;52.474;13.454;2023-02-15T07:01:48;88.20;;;28.50;;
15293;SDS011;7748;52.474;13.454;2023-02-15T07:04:16;83.53;;;27.88;;
15293;SDS011;7748;52.474;13.454;2023-02-15T07:06:44;78.13;;;29.25;;
15293;SDS011;7748;52.474;13.454;2023-02-15T07:09:13;69.38;;;27.13;;
15293;SDS011;7748;52.474;13.454;2023-02-15T07:11:41;86.78;;;30.73;;
15293;SDS011;7748;52.474;13.454;2023-02-15T07:14:38;70.20;;;28.27;;
15293;SDS011;7748;52.474;13.454;2023-02-15T07:17:06;89.68;;;30.27;;
15293;SDS011;7748;52.474;13.454;2023-02-15T07:19:54;73.82;;;29.15;;
15293;SDS011;7748;52.474;13.454;2023-02-15T07:22:22;75.07;;;29.92;;
15293;SDS011;7748;52.474;13.454;2023-02-15T07:24:52;67.38;;;23.90;;
15293;SDS011;7748;52.474;13.454;2023-02-15T07:27:21;75.63;;;28.48;;
15293;SDS011;7748;52.474;13.454;2023-02-15T07:29:49;66.72;;;26.42;;
15293;SDS011;7748;52.474;13.454;2023-02-15T07:32:17;76.97;;;27.13;;
15293;SDS011;7748;52.474;13.454;2023-02-15T07:34:44;72.15;;;28.95;;
15293;SDS011;7748;52.474;13.454;2023-02-15T07:37:12;73.40;;;28.13;;
15293;SDS011;7748;52.474;13.454;2023-02-15T07:39:40;69.27;;;27.23;;
15293;SDS011;7748;52.474;13.454;2023-02-15T07:42:10;80.93;;;27.60;;
15293;SDS011;7748;52.474;13.454;2023-02-15T07:44:37;78.10;;;26.60;;
15293;SDS011;7748;52.474;13.454;2023-02-15T07:47:06;62.40;;;25.33;;
15293;SDS011;7748;52.474;13.454;2023-02-15T07:49:34;68.20;;;26.23;;
15293;SDS011;7748;52.474;13.454;2023-02-15T07:52:01;74.23;;;26.80;;
15293;SDS011;7748;52.474;13.454;2023-02-15T07:54:29;64.17;;;25.77;;
15293;SDS011;7748;52.474;13.454;2023-02-15T07:56:57;55.40;;;23.40;;
15293;SDS011;7748;52.474;13.454;2023-02-15T07:59:26;65.07;;;25.47;;
15293;SDS011;7748;52.474;13.454;2023-02-15T08:01:54;71.00;;;27.07;;
15293;SDS011;7748;52.474;13.454;2023-02-15T08:04:24;70.43;;;26.53;;
15293;SDS011;7748;52.474;13.454;2023-02-15T08:06:52;75.43;;;29.57;;
15293;SDS011;7748;52.474;13.454;2023-02-15T08:09:21;65.97;;;25.07;;
15293;SDS011;7748;52.474;13.454;2023-02-15T08:11:49;60.47;;;25.53;;
15293;SDS011;7748;52.474;13.454;2023-02-15T08:14:18;57.10;;;23.83;;
15293;SDS011;7748;52.474;13.454;2023-02-15T08:16:48;55.23;;;23.40;;
15293;SDS011;7748;52.474;13.454;2023-02-15T08:19:19;53.87;;;23.07;;
15293;SDS011;7748;52.474;13.454;2023-02-15T08:21:49;54.97;;;25.07;;
15293;SDS011;7748;52.474;13.454;2023-02-15T08:24:20;53.10;;;22.90;;
15293;SDS011;7748;52.474;13.454;2023-02-15T08:26:49;55.50;;;23.00;;
15293;SDS011;7748;52.474;13.454;2023-02-15T08:29:19;52.63;;;23.43;;
15293;SDS011;7748;52.474;13.454;2023-02-15T08:31:52;62.30;;;23.33;;
15293;SDS011;7748;52.474;13.454;2023-02-15T08:34:21;51.80;;;24.33;;
15293;SDS011;7748;52.474;13.454;2023-02-15T08:36:49;67.53;;;23.80;;
15293;SDS011;7748;52.474;13.454;2023-02-15T08:39:18;48.57;;;23.03;;
15293;SDS011;7748;52.474;13.454;2023-02-15T08:41:46;57.23;;;24.93;;
15293;SDS011;7748;52.474;13.454;2023-02-15T08:44:15;54.90;;;24.67;;
15293;SDS011;7748;52.474;13.454;2023-02-15T08:46:45;61.97;;;26.37;;
15293;SDS011;7748;52.474;13.454;2023-02-15T08:49:16;55.43;;;25.57;;
15293;SDS011;7748;52.474;13.454;2023-02-15T08:51:45;56.63;;;24.93;;
15293;SDS011;7748;52.474;13.454;2023-02-15T08:54:14;50.73;;;23.07;;
15293;SDS011;7748;52.474;13.454;2023-02-15T08:56:43;50.37;;;22.87;;
15293;SDS011;7748;52.474;13.454;2023-02-15T08:59:12;52.87;;;22.53;;
15293;SDS011;7748;52.474;13.454;2023-02-15T09:01:42;50.03;;;23.50;;
15293;SDS011;7748;52.474;13.454;2023-02-15T09:04:10;45.00;;;22.27;;
15293;SDS011;7748;52.474;13.454;2023-02-15T09:06:41;52.33;;;22.97;;
15293;SDS011;7748;52.474;13.454;2023-02-15T09:09:13;48.67;;;23.00;;
15293;SDS011;7748;52.474;13.454;2023-02-15T09:11:43;47.77;;;21.43;;
15293;SDS011;7748;52.474;13.454;2023-02-15T09:14:13;56.13;;;25.23;;
15293;SDS011;7748;52.474;13.454;2023-02-15T09:16:43;48.77;;;22.00;;
15293;SDS011;7748;52.474;13.454;2023-02-15T09:19:15;55.20;;;25.23;;
15293;SDS011;7748;52.474;13.454;2023-02-15T09:21:45;42.47;;;21.63;;
15293;SDS011;7748;52.474;13.454;2023-02-15T09:24:14;49.07;;;22.47;;
15293;SDS011;7748;52.474;13.454;2023-02-15T09:26:43;46.93;;;22.67;;
15293;SDS011;7748;52.474;13.454;2023-02-15T09:29:12;46.20;;;22.00;;
15293;SDS011;7748;52.474;13.454;2023-02-15T09:31:42;46.50;;;23.17;;
15293;SDS011;7748;52.474;13.454;2023-02-15T09:34:12;47.17;;;20.70;;
15293;SDS011;7748;52.474;13.454;2023-02-15T09:36:42;46.17;;;20.57;;
15293;SDS011;7748;52.474;13.454;2023-02-15T09:39:12;40.00;;;19.93;;
15293;SDS011;7748;52.474;13.454;2023-02-15T09:44:52;49.60;;;23.53;;
15293;SDS011;7748;52.474;13.454;2023-02-15T09:47:47;48.27;;;22.10;;
15293;SDS011;7748;52.474;13.454;2023-02-15T09:50:50;61.83;;;23.43;;
15293;SDS011;7748;52.474;13.454;2023-02-15T09:53:39;44.33;;;21.67;;
15293;SDS011;7748;52.474;13.454;2023-02-15T09:56:25;37.27;;;20.70;;
15293;SDS011;7748;52.474;13.454;2023-02-15T09:58:59;38.40;;;20.30;;
15293;SDS011;7748;52.474;13.454;2023-02-15T10:01:33;43.83;;;20.80;;
15293;SDS011;7748;52.474;13.454;2023-02-15T10:04:17;46.23;;;22.67;;
15293;SDS011;7748;52.474;13.454;2023-02-15T10:07:00;45.77;;;21.47;;
15293;SDS011;7748;52.474;13.454;2023-02-15T10:09:44;43.00;;;20.33;;
15293;SDS011;7748;52.474;13.454;2023-02-15T10:15:24;39.37;;;19.10;;
15293;SDS011;7748;52.474;13.454;2023-02-15T10:18:05;44.63;;;20.23;;
15293;SDS011;7748;52.474;13.454;2023-02-15T10:20:53;40.43;;;20.37;;
15293;SDS011;7748;52.474;13.454;2023-02-15T10:23:31;36.57;;;18.93;;
15293;SDS011;7748;52.474;13.454;2023-02-15T10:26:11;35.70;;;18.77;;
15293;SDS011;7748;52.474;13.454;2023-02-15T10:28:48;40.20;;;19.63;;
15293;SDS011;7748;52.474;13.454;2023-02-15T10:31:22;35.57;;;18.20;;
15293;SDS011;7748;52.474;13.454;2023-02-15T10:34:07;36.87;;;18.47;;
15293;SDS011;7748;52.474;13.454;2023-02-15T10:36:55;50.57;;;24.10;;
15293;SDS011;7748;52.474;13.454;2023-02-15T10:39:39;41.07;;;21.47;;
15293;SDS011;7748;52.474;13.454;2023-02-15T10:42:16;45.80;;;19.33;;
15293;SDS011;7748;52.474;13.454;2023-02-15T10:47:52;36.70;;;18.70;;
15293;SDS011;7748;52.474;13.454;2023-02-15T10:50:33;38.13;;;18.23;;
15293;SDS011;7748;52.474;13.454;2023-02-15T10:53:19;35.20;;;19.90;;
15293;SDS011;7748;52.474;13.454;2023-02-15T10:56:03;36.03;;;18.03;;
15293;SDS011;7748;52.474;13.454;2023-02-15T10:58:44;35.30;;;18.40;;
15293;SDS011;7748;52.474;13.454;2023-02-15T11:01:30;39.50;;;19.43;;
15293;SDS011;7748;52.474;13.454;2023-02-15T11:04:09;35.17;;;19.77;;
15293;SDS011;7748;52.474;13.454;2023-02-15T11:07:03;41.37;;;21.33;;
15293;SDS011;7748;52.474;13.454;2023-02-15T11:09:37;39.57;;;19.57;;
15293;SDS011;7748;52.474;13.454;2023-02-15T11:12:10;36.80;;;18.57;;
15293;SDS011;7748;52.474;13.454;2023-02-15T11:14:43;36.67;;;19.00;;
15293;SDS011;7748;52.474;13.454;2023-02-15T11:17:17;33.57;;;19.20;;
15293;SDS011;7748;52.474;13.454;2023-02-15T11:19:54;33.40;;;17.93;;
15293;SDS011;7748;52.474;13.454;2023-02-15T11:22:27;35.10;;;16.87;;
15293;SDS011;7748;52.474;13.454;2023-02-15T11:24:56;38.07;;;19.10;;
15293;SDS011;7748;52.474;13.454;2023-02-15T11:27:28;41.53;;;21.00;;
15293;SDS011;7748;52.474;13.454;2023-02-15T11:30:00;41.77;;;19.83;;
15293;SDS011;7748;52.474;13.454;2023-02-15T11:32:33;38.03;;;18.83;;
15293;SDS011;7748;52.474;13.454;2023-02-15T11:35:10;36.63;;;18.97;;
15293;SDS011;7748;52.474;13.454;2023-02-15T11:37:51;32.03;;;18.17;;
15293;SDS011;7748;52.474;13.454;2023-02-15T11:40:26;34.03;;;17.67;;
15293;SDS011;7748;52.474;13.454;2023-02-15T11:42:58;31.93;;;17.97;;
15293;SDS011;7748;52.474;13.454;2023-02-15T11:45:31;36.97;;;18.97;;
15293;SDS011;7748;52.474;13.454;2023-02-15T11:48:08;32.97;;;17.67;;
15293;SDS011;7748;52.474;13.454;2023-02-15T11:50:37;33.70;;;16.90;;
15293;SDS011;7748;52.474;13.454;2023-02-15T11:53:09;32.80;;;17.90;;
15293;SDS011;7748;52.474;13.454;2023-02-15T11:55:39;33.00;;;18.20;;
15293;SDS011;7748;52.474;13.454;2023-02-15T11:58:16;36.13;;;18.93;;
15293;SDS011;7748;52.474;13.454;2023-02-15T12:00:55;35.10;;;17.20;;
15293;SDS011;7748;52.474;13.454;2023-02-15T12:03:32;28.97;;;16.17;;
15293;SDS011;7748;52.474;13.454;2023-02-15T12:06:13;33.03;;;18.03;;
15293;SDS011;7748;52.474;13.454;2023-02-15T12:08:48;32.60;;;17.93;;
15293;SDS011;7748;52.474;13.454;2023-02-15T12:11:20;29.27;;;17.80;;
15293;SDS011;7748;52.474;13.454;2023-02-15T12:13:54;37.17;;;19.50;;
15293;SDS011;7748;52.474;13.454;2023-02-15T12:16:23;32.50;;;17.40;;
15293;SDS011;7748;52.474;13.454;2023-02-15T12:18:55;37.53;;;19.53;;
15293;SDS011;7748;52.474;13.454;2023-02-15T12:21:25;38.20;;;19.37;;
15293;SDS011;7748;52.474;13.454;2023-02-15T12:23:56;37.00;;;19.03;;
15293;SDS011;7748;52.474;13.454;2023-02-15T12:26:28;31.90;;;17.13;;
15293;SDS011;7748;52.474;13.454;2023-02-15T12:28:58;37.93;;;17.77;;
15293;SDS011;7748;52.474;13.454;2023-02-15T12:31:31;34.00;;;17.77;;
15293;SDS011;7748;52.474;13.454;2023-02-15T12:34:07;31.87;;;18.43;;
15293;SDS011;7748;52.474;13.454;2023-02-15T12:36:40;31.83;;;17.73;;
15293;SDS011;7748;52.474;13.454;2023-02-15T12:39:19;34.63;;;17.07;;
15293;SDS011;7748;52.474;13.454;2023-02-15T12:41:57;33.33;;;18.17;;
15293;SDS011;7748;52.474;13.454;2023-02-15T12:44:30;42.93;;;19.23;;
15293;SDS011;7748;52.474;13.454;2023-02-15T12:47:00;35.10;;;18.03;;
15293;SDS011;7748;52.474;13.454;2023-02-15T12:49:32;27.43;;;17.03;;
15293;SDS011;7748;52.474;13.454;2023-02-15T12:52:03;36.97;;;19.13;;
15293;SDS011;7748;52.474;13.454;2023-02-15T12:54:35;31.37;;;19.07;;
15293;SDS011;7748;52.474;13.454;2023-02-15T12:57:14;31.33;;;17.70;;
15293;SDS011;7748;52.474;13.454;2023-02-15T12:59:49;32.10;;;17.00;;
15293;SDS011;7748;52.474;13.454;2023-02-15T13:02:25;31.87;;;16.93;;
15293;SDS011;7748;52.474;13.454;2023-02-15T13:05:04;24.80;;;15.43;;
15293;SDS011;7748;52.474;13.454;2023-02-15T13:07:44;35.17;;;17.17;;
15293;SDS011;7748;52.474;13.454;2023-02-15T13:10:24;28.43;;;17.53;;
15293;SDS011;7748;52.474;13.454;2023-02-15T13:12:54;33.87;;;17.80;;
15293;SDS011;7748;52.474;13.454;2023-02-15T13:15:25;34.60;;;17.97;;
15293;SDS011;7748;52.474;13.454;2023-02-15T13:17:58;29.93;;;17.20;;
15293;SDS011;7748;52.474;13.454;2023-02-15T13:20:30;33.33;;;17.50;;
15293;SDS011;7748;52.474;13.454;2023-02-15T13:23:03;28.13;;;16.47;;
15293;SDS011;7748;52.474;13.454;2023-02-15T13:25:37;31.73;;;16.53;;
15293;SDS011;7748;52.474;13.454;2023-02-15T13:28:16;28.73;;;16.47;;
15293;SDS011;7748;52.474;13.454;2023-02-15T13:30:50;27.47;;;15.47;;
15293;SDS011;7748;52.474;13.454;2023-02-15T13:33:20;32.53;;;17.57;;
15293;SDS011;7748;52.474;13.454;2023-02-15T13:35:58;29.27;;;16.50;;
15293;SDS011;7748;52.474;13.454;2023-02-15T13:41:25;32.37;;;17.30;;
15293;SDS011;7748;52.474;13.454;2023-02-15T13:44:04;29.57;;;15.73;;
15293;SDS011;7748;52.474;13.454;2023-02-15T13:49:44;26.83;;;15.60;;
15293;SDS011;7748;52.474;13.454;2023-02-15T13:52:25;30.17;;;17.10;;
15293;SDS011;7748;52.474;13.454;2023-02-15T13:55:06;27.37;;;16.30;;
15293;SDS011;7748;52.474;13.454;2023-02-15T13:58:01;30.93;;;16.03;;
15293;SDS011;7748;52.474;13.454;2023-02-15T14:00:44;30.17;;;16.83;;
15293;SDS011;7748;52.474;13.454;2023-02-15T14:03:30;29.67;;;16.17;;
15293;SDS011;7748;52.474;13.454;2023-02-15T14:06:16;30.93;;;15.07;;
15293;SDS011;7748;52.474;13.454;2023-02-15T14:09:01;26.67;;;15.13;;
15293;SDS011;7748;52.474;13.454;2023-02-15T14:11:46;25.07;;;14.37;;
15293;SDS011;7748;52.474;13.454;2023-02-15T14:14:30;26.73;;;15.33;;
15293;SDS011;7748;52.474;13.454;2023-02-15T14:17:12;25.83;;;14.67;;
15293;SDS011;7748;52.474;13.454;2023-02-15T14:19:58;28.57;;;15.73;;
15293;SDS011;7748;52.474;13.454;2023-02-15T14:22:41;27.40;;;15.70;;
15293;SDS011;7748;52.474;13.454;2023-02-15T14:25:16;26.50;;;15.70;;
15293;SDS011;7748;52.474;13.454;2023-02-15T14:27:53;46.60;;;17.80;;
15293;SDS011;7748;52.474;13.454;2023-02-15T14:30:26;31.47;;;15.90;;
15293;SDS011;7748;52.474;13.454;2023-02-15T14:32:59;24.60;;;15.17;;
15293;SDS011;7748;52.474;13.454;2023-02-15T14:35:32;30.80;;;14.93;;
15293;SDS011;7748;52.474;13.454;2023-02-15T14:38:02;33.57;;;17.60;;
15293;SDS011;7748;52.474;13.454;2023-02-15T14:40:42;38.47;;;16.57;;
15293;SDS011;7748;52.474;13.454;2023-02-15T14:43:31;37.57;;;17.83;;
15293;SDS011;7748;52.474;13.454;2023-02-15T14:46:10;34.90;;;17.03;;
15293;SDS011;7748;52.474;13.454;2023-02-15T14:48:49;34.07;;;18.07;;
15293;SDS011;7748;52.474;13.454;2023-02-15T14:57:26;44.60;;;17.30;;
15293;SDS011;7748;52.474;13.454;2023-02-15T15:00:03;25.80;;;14.77;;
15293;SDS011;7748;52.474;13.454;2023-02-15T15:02:48;30.70;;;15.97;;
15293;SDS011;7748;52.474;13.454;2023-02-15T15:05:19;29.03;;;14.73;;
15293;SDS011;7748;52.474;13.454;2023-02-15T15:07:51;29.90;;;15.77;;
15293;SDS011;7748;52.474;13.454;2023-02-15T15:10:35;28.97;;;16.37;;
15293;SDS011;7748;52.474;13.454;2023-02-15T15:16:45;27.67;;;16.03;;
15293;SDS011;7748;52.474;13.454;2023-02-15T15:22:34;29.67;;;16.37;;
15293;SDS011;7748;52.474;13.454;2023-02-15T15:25:04;26.00;;;15.67;;
15293;SDS011;7748;52.474;13.454;2023-02-15T15:27:38;28.90;;;15.53;;